sensor_id;sensor_type;location;lat;lon;timestamp;P1;durP1;ratioP1;P2;durP2;ratioP2
417;SDS011;49;48.530;9.200;2023-03-16T00:01:02;24.33;;;13.20;;
417;SDS011;49;48.530;9.200;2023-03-16T00:03:49;23.47;;;11.70;;
417;SDS011;49;48.530;9.200;2023-03-16T00:06:19;20.23;;;12.67;;
417;SDS011;49;48.530;9.200;2023-03-16T00:08:47;20.13;;;9.77;;
417;SDS011;49;48.530;9.200;2023-03-16T00:11:14;22.70;;;13.20;;
417;SDS011;49;48.530;9.200;2023-03-16T00:13:45;22.10;;;12.33;;
417;SDS011;49;48.530;9.200;2023-03-16T00:16:12;24.83;;;13.60;;
417;SDS011;49;48.530;9.200;2023-03-16T00:18:42;26.03;;;12.70;;
417;SDS011;49;48.530;9.200;2023-03-16T00:21:13;25.20;;;14.03;;
417;SDS011;49;48.530;9.200;2023-03-16T00:23:44;25.40;;;14.83;;
417;SDS011;49;48.530;9.200;2023-03-16T00:26:15;23.50;;;13.40;;
417;SDS011;49;48.530;9.200;2023-03-16T00:28:44;25.73;;;13.70;;
417;SDS011;49;48.530;9.200;2023-03-16T00:31:11;25.13;;;14.17;;
417;SDS011;49;48.530;9.200;2023-03-16T00:33:39;27.93;;;15.17;;
417;SDS011;49;48.530;9.200;2023-03-16T00:36:07;38.03;;;19.03;;
417;SDS011;49;48.530;9.200;2023-03-16T00:38:36;30.57;;;15.93;;
417;SDS011;49;48.530;9.200;2023-03-16T00:41:05;38.37;;;19.60;;
417;SDS011;49;48.530;9.200;2023-03-16T00:43:34;25.87;;;17.17;;
417;SDS011;49;48.530;9.200;2023-03-16T00:46:06;23.47;;;14.43;;
417;SDS011;49;48.530;9.200;2023-03-16T00:48:34;22.30;;;13.60;;
417;SDS011;49;48.530;9.200;2023-03-16T00:51:02;30.13;;;15.47;;
417;SDS011;49;48.530;9.200;2023-03-16T00:53:31;22.67;;;15.93;;
417;SDS011;49;48.530;9.200;2023-03-16T00:55:59;21.77;;;15.03;;
417;SDS011;49;48.530;9.200;2023-03-16T00:58:30;20.67;;;13.87;;
417;SDS011;49;48.530;9.200;2023-03-16T01:01:00;23.33;;;16.13;;
417;SDS011;49;48.530;9.200;2023-03-16T01:03:28;31.70;;;13.93;;
417;SDS011;49;48.530;9.200;2023-03-16T01:05:55;20.07;;;14.50;;
417;SDS011;49;48.530;9.200;2023-03-16T01:08:26;20.90;;;14.20;;
417;SDS011;49;48.530;9.200;2023-03-16T01:10:53;31.83;;;15.30;;
417;SDS011;49;48.530;9.200;2023-03-16T01:13:21;25.00;;;15.97;;
417;SDS011;49;48.530;9.200;2023-03-16T01:15:51;27.90;;;17.60;;
417;SDS011;49;48.530;9.200;2023-03-16T01:18:18;30.70;;;15.80;;
417;SDS011;49;48.530;9.200;2023-03-16T01:20:47;29.43;;;15.20;;
417;SDS011;49;48.530;9.200;2023-03-16T01:23:15;32.33;;;15.73;;
417;SDS011;49;48.530;9.200;2023-03-16T01:25:42;24.97;;;15.30;;
417;SDS011;49;48.530;9.200;2023-03-16T01:28:17;24.77;;;15.30;;
417;SDS011;49;48.530;9.200;2023-03-16T01:30:44;22.50;;;16.80;;
417;SDS011;49;48.530;9.200;2023-03-16T01:33:11;28.20;;;16.60;;
417;SDS011;49;48.530;9.200;2023-03-16T01:35:40;26.77;;;16.53;;
417;SDS011;49;48.530;9.200;2023-03-16T01:38:09;27.07;;;17.70;;
417;SDS011;49;48.530;9.200;2023-03-16T01:40:36;26.47;;;17.73;;
417;SDS011;49;48.530;9.200;2023-03-16T01:43:06;27.60;;;17.97;;
417;SDS011;49;48.530;9.200;2023-03-16T01:51:32;33.00;;;25.13;;
417;SDS011;49;48.530;9.200;2023-03-16T01:54:05;42.13;;;22.03;;
417;SDS011;49;48.530;9.200;2023-03-16T01:56:39;34.33;;;21.20;;
417;SDS011;49;48.530;9.200;2023-03-16T01:59:13;48.10;;;22.90;;
417;SDS011;49;48.530;9.200;2023-03-16T02:01:43;36.80;;;24.00;;
417;SDS011;49;48.530;9.200;2023-03-16T02:06:58;24.53;;;17.30;;
417;SDS011;49;48.530;9.200;2023-03-16T02:09:29;32.80;;;19.93;;
417;SDS011;49;48.530;9.200;2023-03-16T02:11:57;23.83;;;16.60;;
417;SDS011;49;48.530;9.200;2023-03-16T02:14:25;26.17;;;17.73;;
417;SDS011;49;48.530;9.200;2023-03-16T02:16:52;28.57;;;18.70;;
417;SDS011;49;48.530;9.200;2023-03-16T02:19:28;30.57;;;19.27;;
417;SDS011;49;48.530;9.200;2023-03-16T02:22:02;36.53;;;20.90;;
417;SDS011;49;48.530;9.200;2023-03-16T02:24:36;39.50;;;22.17;;
417;SDS011;49;48.530;9.200;2023-03-16T02:27:04;42.83;;;24.33;;
417;SDS011;49;48.530;9.200;2023-03-16T02:32:33;34.67;;;23.40;;
417;SDS011;49;48.530;9.200;2023-03-16T02:35:08;38.63;;;23.23;;
417;SDS011;49;48.530;9.200;2023-03-16T02:37:37;36.60;;;23.47;;
417;SDS011;49;48.530;9.200;2023-03-16T02:40:15;35.40;;;24.57;;
417;SDS011;49;48.530;9.200;2023-03-16T02:42:53;38.23;;;24.43;;
417;SDS011;49;48.530;9.200;2023-03-16T02:45:30;35.73;;;24.77;;
417;SDS011;49;48.530;9.200;2023-03-16T02:48:04;41.57;;;25.03;;
417;SDS011;49;48.530;9.200;2023-03-16T02:50:45;59.10;;;27.80;;
417;SDS011;49;48.530;9.200;2023-03-16T02:53:15;60.17;;;25.70;;
417;SDS011;49;48.530;9.200;2023-03-16T02:55:45;113.53;;;28.07;;
417;SDS011;49;48.530;9.200;2023-03-16T02:58:13;64.87;;;29.20;;
417;SDS011;49;48.530;9.200;2023-03-16T03:00:43;69.50;;;28.50;;
417;SDS011;49;48.530;9.200;2023-03-16T03:03:13;83.97;;;29.53;;
417;SDS011;49;48.530;9.200;2023-03-16T03:05:41;47.77;;;29.90;;
417;SDS011;49;48.530;9.200;2023-03-16T03:08:08;53.00;;;30.93;;
417;SDS011;49;48.530;9.200;2023-03-16T03:10:38;55.20;;;31.30;;
417;SDS011;49;48.530;9.200;2023-03-16T03:13:07;84.33;;;31.90;;
417;SDS011;49;48.530;9.200;2023-03-16T03:15:34;51.80;;;32.07;;
417;SDS011;49;48.530;9.200;2023-03-16T03:18:03;67.83;;;32.67;;
417;SDS011;49;48.530;9.200;2023-03-16T03:20:31;56.43;;;33.07;;
417;SDS011;49;48.530;9.200;2023-03-16T03:22:59;51.30;;;32.70;;
417;SDS011;49;48.530;9.200;2023-03-16T03:25:27;47.90;;;30.80;;
417;SDS011;49;48.530;9.200;2023-03-16T03:27:54;44.63;;;30.60;;
417;SDS011;49;48.530;9.200;2023-03-16T03:30:23;49.60;;;31.80;;
417;SDS011;49;48.530;9.200;2023-03-16T03:32:53;36.40;;;26.87;;
417;SDS011;49;48.530;9.200;2023-03-16T03:35:25;41.97;;;27.90;;
417;SDS011;49;48.530;9.200;2023-03-16T03:37:55;42.63;;;27.53;;
417;SDS011;49;48.530;9.200;2023-03-16T03:40:22;37.53;;;27.00;;
417;SDS011;49;48.530;9.200;2023-03-16T03:42:49;38.83;;;26.27;;
417;SDS011;49;48.530;9.200;2023-03-16T03:45:17;38.47;;;27.90;;
417;SDS011;49;48.530;9.200;2023-03-16T03:47:45;37.57;;;27.10;;
417;SDS011;49;48.530;9.200;2023-03-16T03:50:15;42.87;;;30.10;;
417;SDS011;49;48.530;9.200;2023-03-16T03:52:44;50.30;;;32.27;;
417;SDS011;49;48.530;9.200;2023-03-16T03:55:11;44.20;;;29.70;;
417;SDS011;49;48.530;9.200;2023-03-16T03:57:40;43.83;;;31.20;;
417;SDS011;49;48.530;9.200;2023-03-16T04:00:07;39.63;;;28.70;;
417;SDS011;49;48.530;9.200;2023-03-16T04:02:36;41.43;;;28.43;;
417;SDS011;49;48.530;9.200;2023-03-16T04:05:03;39.83;;;28.57;;
417;SDS011;49;48.530;9.200;2023-03-16T04:07:31;44.73;;;28.87;;
417;SDS011;49;48.530;9.200;2023-03-16T04:10:00;36.57;;;26.70;;
417;SDS011;49;48.530;9.200;2023-03-16T04:12:33;37.10;;;25.67;;
417;SDS011;49;48.530;9.200;2023-03-16T04:15:01;32.40;;;24.70;;
417;SDS011;49;48.530;9.200;2023-03-16T04:17:28;36.33;;;25.97;;
417;SDS011;49;48.530;9.200;2023-03-16T04:19:58;33.30;;;25.67;;
417;SDS011;49;48.530;9.200;2023-03-16T04:22:27;35.40;;;25.67;;
417;SDS011;49;48.530;9.200;2023-03-16T04:24:56;34.70;;;24.70;;
417;SDS011;49;48.530;9.200;2023-03-16T04:27:24;33.10;;;24.77;;
417;SDS011;49;48.530;9.200;2023-03-16T04:29:51;35.23;;;25.47;;
417;SDS011;49;48.530;9.200;2023-03-16T04:32:22;37.17;;;25.77;;
417;SDS011;49;48.530;9.200;2023-03-16T04:34:50;37.93;;;26.00;;
417;SDS011;49;48.530;9.200;2023-03-16T04:37:22;37.23;;;26.30;;
417;SDS011;49;48.530;9.200;2023-03-16T04:39:49;35.93;;;25.27;;
417;SDS011;49;48.530;9.200;2023-03-16T04:42:17;32.97;;;24.23;;
417;SDS011;49;48.530;9.200;2023-03-16T04:44:47;34.33;;;23.03;;
417;SDS011;49;48.530;9.200;2023-03-16T04:47:15;33.77;;;23.43;;
417;SDS011;49;48.530;9.200;2023-03-16T04:49:42;30.83;;;23.00;;
417;SDS011;49;48.530;9.200;2023-03-16T04:52:12;34.53;;;22.23;;
417;SDS011;49;48.530;9.200;2023-03-16T04:54:40;38.53;;;25.10;;
417;SDS011;49;48.530;9.200;2023-03-16T04:57:10;31.70;;;22.60;;
417;SDS011;49;48.530;9.200;2023-03-16T04:59:37;39.47;;;22.80;;
417;SDS011;49;48.530;9.200;2023-03-16T05:02:11;33.20;;;23.07;;
417;SDS011;49;48.530;9.200;2023-03-16T05:04:38;30.80;;;21.73;;
417;SDS011;49;48.530;9.200;2023-03-16T05:07:11;31.90;;;22.43;;
417;SDS011;49;48.530;9.200;2023-03-16T05:09:44;28.50;;;20.97;;
417;SDS011;49;48.530;9.200;2023-03-16T05:12:14;34.30;;;22.50;;
417;SDS011;49;48.530;9.200;2023-03-16T05:14:45;31.30;;;22.23;;
417;SDS011;49;48.530;9.200;2023-03-16T05:17:16;30.23;;;22.67;;
417;SDS011;49;48.530;9.200;2023-03-16T05:19:49;29.90;;;21.03;;
417;SDS011;49;48.530;9.200;2023-03-16T05:22:20;31.27;;;22.60;;
417;SDS011;49;48.530;9.200;2023-03-16T05:24:50;30.03;;;22.57;;
417;SDS011;49;48.530;9.200;2023-03-16T05:27:21;29.77;;;21.10;;
417;SDS011;49;48.530;9.200;2023-03-16T05:29:49;30.17;;;21.87;;
417;SDS011;49;48.530;9.200;2023-03-16T05:32:20;33.93;;;22.83;;
417;SDS011;49;48.530;9.200;2023-03-16T05:34:49;30.50;;;23.23;;
417;SDS011;49;48.530;9.200;2023-03-16T05:37:17;32.60;;;22.73;;
417;SDS011;49;48.530;9.200;2023-03-16T05:39:48;31.02;;;22.27;;
417;SDS011;49;48.530;9.200;2023-03-16T05:42:15;31.70;;;24.63;;
417;SDS011;49;48.530;9.200;2023-03-16T05:44:42;28.77;;;22.10;;
417;SDS011;49;48.530;9.200;2023-03-16T05:47:09;27.33;;;19.60;;
417;SDS011;49;48.530;9.200;2023-03-16T05:49:39;26.13;;;20.03;;
417;SDS011;49;48.530;9.200;2023-03-16T05:52:06;34.10;;;21.10;;
417;SDS011;49;48.530;9.200;2023-03-16T05:54:33;29.63;;;21.30;;
417;SDS011;49;48.530;9.200;2023-03-16T05:57:00;27.43;;;21.37;;
417;SDS011;49;48.530;9.200;2023-03-16T05:59:29;27.10;;;21.77;;
417;SDS011;49;48.530;9.200;2023-03-16T06:01:57;28.90;;;22.23;;
417;SDS011;49;48.530;9.200;2023-03-16T06:04:28;28.40;;;22.53;;
417;SDS011;49;48.530;9.200;2023-03-16T06:06:58;31.17;;;23.60;;
417;SDS011;49;48.530;9.200;2023-03-16T06:09:30;50.20;;;36.30;;
417;SDS011;49;48.530;9.200;2023-03-16T06:11:58;28.90;;;21.93;;
417;SDS011;49;48.530;9.200;2023-03-16T06:14:28;24.50;;;17.57;;
417;SDS011;49;48.530;9.200;2023-03-16T06:16:59;20.70;;;17.10;;
417;SDS011;49;48.530;9.200;2023-03-16T06:19:26;19.00;;;14.77;;
417;SDS011;49;48.530;9.200;2023-03-16T06:22:33;16.47;;;13.53;;
417;SDS011;49;48.530;9.200;2023-03-16T06:25:00;15.53;;;11.60;;
417;SDS011;49;48.530;9.200;2023-03-16T06:27:31;23.30;;;14.27;;
417;SDS011;49;48.530;9.200;2023-03-16T06:29:59;17.33;;;13.60;;
417;SDS011;49;48.530;9.200;2023-03-16T06:32:28;16.43;;;12.47;;
417;SDS011;49;48.530;9.200;2023-03-16T06:35:00;17.70;;;13.13;;
417;SDS011;49;48.530;9.200;2023-03-16T06:37:29;17.50;;;12.77;;
417;SDS011;49;48.530;9.200;2023-03-16T06:40:02;18.27;;;13.30;;
417;SDS011;49;48.530;9.200;2023-03-16T06:42:29;16.33;;;11.67;;
417;SDS011;49;48.530;9.200;2023-03-16T06:45:08;18.47;;;13.07;;
417;SDS011;49;48.530;9.200;2023-03-16T06:47:40;15.23;;;10.23;;
417;SDS011;49;48.530;9.200;2023-03-16T06:50:11;15.03;;;11.50;;
417;SDS011;49;48.530;9.200;2023-03-16T06:53:00;16.33;;;10.80;;
417;SDS011;49;48.530;9.200;2023-03-16T06:55:36;15.50;;;10.47;;
417;SDS011;49;48.530;9.200;2023-03-16T06:58:10;22.23;;;14.70;;
417;SDS011;49;48.530;9.200;2023-03-16T07:00:45;15.00;;;11.37;;
417;SDS011;49;48.530;9.200;2023-03-16T07:03:12;18.60;;;12.60;;
417;SDS011;49;48.530;9.200;2023-03-16T07:05:39;22.20;;;12.47;;
417;SDS011;49;48.530;9.200;2023-03-16T07:08:09;17.53;;;12.33;;
417;SDS011;49;48.530;9.200;2023-03-16T07:10:36;44.07;;;14.33;;
417;SDS011;49;48.530;9.200;2023-03-16T07:13:03;23.47;;;14.30;;
417;SDS011;49;48.530;9.200;2023-03-16T07:15:30;22.37;;;14.60;;
417;SDS011;49;48.530;9.200;2023-03-16T07:17:57;24.90;;;14.70;;
417;SDS011;49;48.530;9.200;2023-03-16T07:20:25;21.27;;;13.90;;
417;SDS011;49;48.530;9.200;2023-03-16T07:22:55;27.10;;;14.63;;
417;SDS011;49;48.530;9.200;2023-03-16T07:25:28;30.37;;;14.53;;
417;SDS011;49;48.530;9.200;2023-03-16T07:27:57;41.40;;;15.30;;
417;SDS011;49;48.530;9.200;2023-03-16T07:30:27;29.23;;;13.40;;
417;SDS011;49;48.530;9.200;2023-03-16T07:32:55;24.63;;;12.60;;
417;SDS011;49;48.530;9.200;2023-03-16T07:35:22;25.00;;;15.50;;
417;SDS011;49;48.530;9.200;2023-03-16T07:37:52;24.50;;;16.10;;
417;SDS011;49;48.530;9.200;2023-03-16T07:40:22;23.43;;;15.93;;
417;SDS011;49;48.530;9.200;2023-03-16T07:42:57;19.63;;;14.20;;
417;SDS011;49;48.530;9.200;2023-03-16T07:45:26;22.93;;;14.63;;
417;SDS011;49;48.530;9.200;2023-03-16T07:47:55;17.47;;;13.10;;
417;SDS011;49;48.530;9.200;2023-03-16T07:50:25;15.03;;;11.67;;
417;SDS011;49;48.530;9.200;2023-03-16T07:52:52;15.00;;;11.53;;
417;SDS011;49;48.530;9.200;2023-03-16T07:55:19;18.43;;;12.20;;
417;SDS011;49;48.530;9.200;2023-03-16T07:57:46;18.87;;;11.60;;
417;SDS011;49;48.530;9.200;2023-03-16T08:00:15;16.37;;;12.17;;
417;SDS011;49;48.530;9.200;2023-03-16T08:02:48;20.27;;;11.90;;
417;SDS011;49;48.530;9.200;2023-03-16T08:05:16;14.53;;;12.00;;
417;SDS011;49;48.530;9.200;2023-03-16T08:07:43;17.93;;;12.53;;
417;SDS011;49;48.530;9.200;2023-03-16T08:10:10;15.77;;;12.03;;
417;SDS011;49;48.530;9.200;2023-03-16T08:12:37;18.57;;;12.47;;
417;SDS011;49;48.530;9.200;2023-03-16T08:15:07;17.63;;;12.67;;
417;SDS011;49;48.530;9.200;2023-03-16T08:17:37;20.30;;;13.37;;
417;SDS011;49;48.530;9.200;2023-03-16T08:20:06;16.07;;;12.10;;
417;SDS011;49;48.530;9.200;2023-03-16T08:22:34;20.60;;;12.30;;
417;SDS011;49;48.530;9.200;2023-03-16T08:25:02;14.00;;;11.30;;
417;SDS011;49;48.530;9.200;2023-03-16T08:27:30;14.43;;;10.60;;
417;SDS011;49;48.530;9.200;2023-03-16T08:29:57;15.07;;;12.30;;
417;SDS011;49;48.530;9.200;2023-03-16T08:32:29;23.40;;;12.10;;
417;SDS011;49;48.530;9.200;2023-03-16T08:34:57;18.13;;;13.50;;
417;SDS011;49;48.530;9.200;2023-03-16T08:37:30;17.10;;;11.80;;
417;SDS011;49;48.530;9.200;2023-03-16T08:40:10;16.20;;;12.30;;
417;SDS011;49;48.530;9.200;2023-03-16T08:42:41;28.07;;;13.03;;
417;SDS011;49;48.530;9.200;2023-03-16T08:45:09;15.93;;;12.13;;
417;SDS011;49;48.530;9.200;2023-03-16T08:47:40;15.13;;;11.30;;
417;SDS011;49;48.530;9.200;2023-03-16T08:50:20;16.33;;;11.70;;
417;SDS011;49;48.530;9.200;2023-03-16T08:52:54;15.00;;;11.50;;
417;SDS011;49;48.530;9.200;2023-03-16T08:55:31;25.60;;;12.30;;
417;SDS011;49;48.530;9.200;2023-03-16T08:58:04;17.57;;;12.60;;
417;SDS011;49;48.530;9.200;2023-03-16T09:00:31;26.67;;;17.93;;
417;SDS011;49;48.530;9.200;2023-03-16T09:02:59;30.47;;;20.03;;
417;SDS011;49;48.530;9.200;2023-03-16T09:05:36;17.33;;;12.90;;
417;SDS011;49;48.530;9.200;2023-03-16T09:08:07;21.37;;;13.60;;
417;SDS011;49;48.530;9.200;2023-03-16T09:10:39;18.13;;;12.20;;
417;SDS011;49;48.530;9.200;2023-03-16T09:13:09;15.73;;;11.27;;
417;SDS011;49;48.530;9.200;2023-03-16T09:15:36;21.73;;;12.50;;
417;SDS011;49;48.530;9.200;2023-03-16T09:18:09;19.23;;;15.07;;
417;SDS011;49;48.530;9.200;2023-03-16T09:20:39;19.23;;;12.47;;
417;SDS011;49;48.530;9.200;2023-03-16T09:23:16;17.43;;;12.67;;
417;SDS011;49;48.530;9.200;2023-03-16T09:25:55;22.80;;;12.90;;
417;SDS011;49;48.530;9.200;2023-03-16T09:28:30;14.00;;;10.80;;
417;SDS011;49;48.530;9.200;2023-03-16T09:30:57;12.93;;;9.90;;
417;SDS011;49;48.530;9.200;2023-03-16T09:33:27;15.20;;;10.00;;
417;SDS011;49;48.530;9.200;2023-03-16T09:36:05;10.83;;;8.63;;
417;SDS011;49;48.530;9.200;2023-03-16T09:38:38;17.23;;;9.37;;
417;SDS011;49;48.530;9.200;2023-03-16T09:41:27;14.60;;;9.10;;
417;SDS011;49;48.530;9.200;2023-03-16T09:44:17;11.23;;;8.70;;
417;SDS011;49;48.530;9.200;2023-03-16T09:47:05;13.53;;;8.63;;
417;SDS011;49;48.530;9.200;2023-03-16T09:49:39;15.60;;;8.60;;
417;SDS011;49;48.530;9.200;2023-03-16T09:52:27;16.07;;;10.00;;
417;SDS011;49;48.530;9.200;2023-03-16T09:55:05;15.00;;;9.30;;
417;SDS011;49;48.530;9.200;2023-03-16T09:57:40;10.67;;;8.73;;
417;SDS011;49;48.530;9.200;2023-03-16T10:00:27;10.73;;;8.43;;
417;SDS011;49;48.530;9.200;2023-03-16T10:03:23;17.40;;;8.73;;
417;SDS011;49;48.530;9.200;2023-03-16T10:06:21;14.00;;;9.07;;
417;SDS011;49;48.530;9.200;2023-03-16T10:08:53;14.03;;;8.67;;
417;SDS011;49;48.530;9.200;2023-03-16T10:11:51;12.70;;;9.43;;
417;SDS011;49;48.530;9.200;2023-03-16T10:14:26;12.73;;;8.70;;
417;SDS011;49;48.530;9.200;2023-03-16T10:17:05;13.40;;;9.10;;
417;SDS011;49;48.530;9.200;2023-03-16T10:19:42;14.70;;;9.23;;
417;SDS011;49;48.530;9.200;2023-03-16T10:22:20;14.87;;;9.80;;
417;SDS011;49;48.530;9.200;2023-03-16T10:25:03;17.90;;;8.37;;
417;SDS011;49;48.530;9.200;2023-03-16T10:27:37;13.57;;;8.30;;
417;SDS011;49;48.530;9.200;2023-03-16T10:30:21;11.77;;;7.00;;
417;SDS011;49;48.530;9.200;2023-03-16T10:32:59;9.57;;;6.47;;
417;SDS011;49;48.530;9.200;2023-03-16T10:35:37;11.63;;;7.27;;
417;SDS011;49;48.530;9.200;2023-03-16T10:41:13;15.97;;;6.40;;
417;SDS011;49;48.530;9.200;2023-03-16T10:43:48;11.47;;;5.53;;
417;SDS011;49;48.530;9.200;2023-03-16T10:46:18;8.13;;;5.63;;
417;SDS011;49;48.530;9.200;2023-03-16T10:48:52;12.00;;;6.00;;
417;SDS011;49;48.530;9.200;2023-03-16T10:51:25;8.63;;;5.40;;
417;SDS011;49;48.530;9.200;2023-03-16T10:54:14;14.60;;;4.70;;
417;SDS011;49;48.530;9.200;2023-03-16T10:56:55;8.10;;;5.50;;
417;SDS011;49;48.530;9.200;2023-03-16T10:59:32;7.60;;;5.03;;
417;SDS011;49;48.530;9.200;2023-03-16T11:02:13;7.70;;;4.60;;
417;SDS011;49;48.530;9.200;2023-03-16T11:04:54;6.57;;;4.50;;
417;SDS011;49;48.530;9.200;2023-03-16T11:07:32;6.20;;;3.13;;
417;SDS011;49;48.530;9.200;2023-03-16T11:10:10;6.60;;;3.60;;
417;SDS011;49;48.530;9.200;2023-03-16T11:12:53;5.20;;;3.37;;
417;SDS011;49;48.530;9.200;2023-03-16T11:15:32;4.30;;;2.93;;
417;SDS011;49;48.530;9.200;2023-03-16T11:18:03;4.90;;;3.10;;
417;SDS011;49;48.530;9.200;2023-03-16T11:20:33;4.97;;;3.30;;
417;SDS011;49;48.530;9.200;2023-03-16T11:23:01;3.90;;;3.40;;
417;SDS011;49;48.530;9.200;2023-03-16T11:25:30;4.57;;;3.53;;
417;SDS011;49;48.530;9.200;2023-03-16T11:28:05;9.13;;;3.47;;
417;SDS011;49;48.530;9.200;2023-03-16T11:30:38;3.43;;;3.17;;
417;SDS011;49;48.530;9.200;2023-03-16T11:33:10;4.00;;;3.30;;
417;SDS011;49;48.530;9.200;2023-03-16T11:35:41;6.80;;;3.20;;
417;SDS011;49;48.530;9.200;2023-03-16T11:38:15;5.67;;;3.20;;
417;SDS011;49;48.530;9.200;2023-03-16T11:40:49;3.57;;;3.30;;
417;SDS011;49;48.530;9.200;2023-03-16T11:43:30;5.87;;;3.60;;
417;SDS011;49;48.530;9.200;2023-03-16T11:46:26;4.53;;;3.50;;
417;SDS011;49;48.530;9.200;2023-03-16T11:51:47;5.50;;;3.90;;
417;SDS011;49;48.530;9.200;2023-03-16T11:54:34;6.50;;;3.60;;
417;SDS011;49;48.530;9.200;2023-03-16T11:57:13;4.80;;;3.67;;
417;SDS011;49;48.530;9.200;2023-03-16T11:59:59;5.53;;;3.60;;
417;SDS011;49;48.530;9.200;2023-03-16T12:02:38;5.20;;;3.93;;
417;SDS011;49;48.530;9.200;2023-03-16T12:05:19;5.27;;;3.70;;
417;SDS011;49;48.530;9.200;2023-03-16T12:08:10;4.93;;;3.63;;
417;SDS011;49;48.530;9.200;2023-03-16T12:10:55;5.77;;;3.83;;
417;SDS011;49;48.530;9.200;2023-03-16T12:13:34;4.70;;;3.60;;
417;SDS011;49;48.530;9.200;2023-03-16T12:16:22;19.07;;;4.30;;
417;SDS011;49;48.530;9.200;2023-03-16T12:18:58;4.03;;;3.10;;
417;SDS011;49;48.530;9.200;2023-03-16T12:21:31;6.40;;;3.90;;
417;SDS011;49;48.530;9.200;2023-03-16T12:24:03;5.57;;;3.80;;
417;SDS011;49;48.530;9.200;2023-03-16T12:26:35;4.93;;;3.60;;
417;SDS011;49;48.530;9.200;2023-03-16T12:29:06;5.00;;;3.50;;
417;SDS011;49;48.530;9.200;2023-03-16T12:31:50;7.60;;;3.93;;
417;SDS011;49;48.530;9.200;2023-03-16T12:34:33;4.83;;;3.57;;
417;SDS011;49;48.530;9.200;2023-03-16T12:37:14;8.70;;;3.50;;
417;SDS011;49;48.530;9.200;2023-03-16T12:40:02;11.73;;;3.77;;
417;SDS011;49;48.530;9.200;2023-03-16T12:42:41;7.40;;;3.97;;
417;SDS011;49;48.530;9.200;2023-03-16T12:45:22;5.70;;;4.17;;
417;SDS011;49;48.530;9.200;2023-03-16T12:48:05;10.03;;;4.00;;
417;SDS011;49;48.530;9.200;2023-03-16T12:50:50;9.37;;;3.80;;
417;SDS011;49;48.530;9.200;2023-03-16T12:53:39;6.43;;;3.80;;
417;SDS011;49;48.530;9.200;2023-03-16T12:56:14;5.33;;;3.67;;
417;SDS011;49;48.530;9.200;2023-03-16T12:58:44;7.03;;;3.90;;
417;SDS011;49;48.530;9.200;2023-03-16T13:01:16;12.37;;;7.10;;
417;SDS011;49;48.530;9.200;2023-03-16T13:04:05;4.60;;;3.40;;
417;SDS011;49;48.530;9.200;2023-03-16T13:06:45;4.40;;;3.97;;
417;SDS011;49;48.530;9.200;2023-03-16T13:09:16;5.33;;;3.20;;
417;SDS011;49;48.530;9.200;2023-03-16T13:11:59;11.13;;;3.67;;
417;SDS011;49;48.530;9.200;2023-03-16T13:14:32;3.40;;;3.17;;
417;SDS011;49;48.530;9.200;2023-03-16T13:17:25;4.57;;;3.80;;
417;SDS011;49;48.530;9.200;2023-03-16T13:20:06;4.77;;;3.00;;
417;SDS011;49;48.530;9.200;2023-03-16T13:23:05;3.93;;;3.17;;
417;SDS011;49;48.530;9.200;2023-03-16T13:25:57;3.87;;;2.90;;
417;SDS011;49;48.530;9.200;2023-03-16T13:28:42;5.13;;;2.87;;
417;SDS011;49;48.530;9.200;2023-03-16T13:31:19;4.30;;;3.07;;
417;SDS011;49;48.530;9.200;2023-03-16T13:33:57;4.03;;;3.50;;
417;SDS011;49;48.530;9.200;2023-03-16T13:36:31;3.40;;;3.30;;
417;SDS011;49;48.530;9.200;2023-03-16T13:39:05;5.03;;;3.00;;
417;SDS011;49;48.530;9.200;2023-03-16T13:41:40;6.93;;;3.57;;
417;SDS011;49;48.530;9.200;2023-03-16T13:44:30;4.63;;;3.27;;
417;SDS011;49;48.530;9.200;2023-03-16T13:47:04;4.60;;;3.40;;
417;SDS011;49;48.530;9.200;2023-03-16T13:49:32;9.40;;;3.07;;
417;SDS011;49;48.530;9.200;2023-03-16T13:52:12;3.83;;;3.10;;
417;SDS011;49;48.530;9.200;2023-03-16T13:54:45;5.40;;;3.57;;
417;SDS011;49;48.530;9.200;2023-03-16T13:57:13;4.53;;;3.13;;
417;SDS011;49;48.530;9.200;2023-03-16T13:59:50;5.30;;;3.30;;
417;SDS011;49;48.530;9.200;2023-03-16T14:02:25;5.60;;;3.23;;
417;SDS011;49;48.530;9.200;2023-03-16T14:05:07;8.90;;;3.23;;
417;SDS011;49;48.530;9.200;2023-03-16T14:07:44;4.23;;;3.10;;
417;SDS011;49;48.530;9.200;2023-03-16T14:10:25;7.30;;;3.50;;
417;SDS011;49;48.530;9.200;2023-03-16T14:12:57;9.07;;;4.00;;
417;SDS011;49;48.530;9.200;2023-03-16T14:15:34;6.30;;;3.30;;
417;SDS011;49;48.530;9.200;2023-03-16T14:18:11;3.70;;;3.00;;
417;SDS011;49;48.530;9.200;2023-03-16T14:20:47;7.03;;;3.20;;
417;SDS011;49;48.530;9.200;2023-03-16T14:23:23;6.60;;;3.17;;
417;SDS011;49;48.530;9.200;2023-03-16T14:26:02;6.90;;;3.07;;
417;SDS011;49;48.530;9.200;2023-03-16T14:28:36;3.80;;;3.10;;
417;SDS011;49;48.530;9.200;2023-03-16T14:31:10;5.53;;;3.60;;
417;SDS011;49;48.530;9.200;2023-03-16T14:33:40;3.77;;;3.17;;
417;SDS011;49;48.530;9.200;2023-03-16T14:36:33;7.03;;;3.27;;
417;SDS011;49;48.530;9.200;2023-03-16T14:39:15;4.97;;;3.50;;
417;SDS011;49;48.530;9.200;2023-03-16T14:41:53;6.07;;;3.67;;
417;SDS011;49;48.530;9.200;2023-03-16T14:44:25;7.03;;;3.13;;
417;SDS011;49;48.530;9.200;2023-03-16T14:47:04;4.90;;;3.40;;
417;SDS011;49;48.530;9.200;2023-03-16T14:49:51;7.07;;;3.60;;
417;SDS011;49;48.530;9.200;2023-03-16T14:52:21;5.60;;;3.80;;
417;SDS011;49;48.530;9.200;2023-03-16T14:55:08;7.73;;;4.17;;
417;SDS011;49;48.530;9.200;2023-03-16T14:57:53;3.80;;;3.23;;
417;SDS011;49;48.530;9.200;2023-03-16T15:00:23;4.00;;;3.30;;
417;SDS011;49;48.530;9.200;2023-03-16T15:02:57;5.30;;;3.67;;
417;SDS011;49;48.530;9.200;2023-03-16T15:05:29;4.17;;;3.40;;
417;SDS011;49;48.530;9.200;2023-03-16T15:07:59;4.67;;;3.20;;
417;SDS011;49;48.530;9.200;2023-03-16T15:10:32;5.70;;;3.60;;
417;SDS011;49;48.530;9.200;2023-03-16T15:13:11;8.23;;;4.13;;
417;SDS011;49;48.530;9.200;2023-03-16T15:15:55;4.83;;;3.40;;
417;SDS011;49;48.530;9.200;2023-03-16T15:18:26;14.03;;;4.20;;
417;SDS011;49;48.530;9.200;2023-03-16T15:20:58;4.53;;;3.23;;
417;SDS011;49;48.530;9.200;2023-03-16T15:23:32;7.43;;;3.90;;
417;SDS011;49;48.530;9.200;2023-03-16T15:26:04;5.20;;;4.10;;
417;SDS011;49;48.530;9.200;2023-03-16T15:28:36;5.43;;;3.90;;
417;SDS011;49;48.530;9.200;2023-03-16T15:31:05;4.20;;;3.70;;
417;SDS011;49;48.530;9.200;2023-03-16T15:33:37;5.53;;;3.47;;
417;SDS011;49;48.530;9.200;2023-03-16T15:36:14;8.20;;;5.00;;
417;SDS011;49;48.530;9.200;2023-03-16T15:38:48;5.47;;;4.30;;
417;SDS011;49;48.530;9.200;2023-03-16T15:41:25;6.20;;;4.10;;
417;SDS011;49;48.530;9.200;2023-03-16T15:43:59;5.10;;;4.40;;
417;SDS011;49;48.530;9.200;2023-03-16T15:46:31;6.10;;;4.10;;
417;SDS011;49;48.530;9.200;2023-03-16T15:49:04;5.83;;;4.33;;
417;SDS011;49;48.530;9.200;2023-03-16T15:51:42;5.23;;;4.30;;
417;SDS011;49;48.530;9.200;2023-03-16T15:54:18;7.60;;;4.87;;
417;SDS011;49;48.530;9.200;2023-03-16T15:56:51;8.87;;;4.50;;
417;SDS011;49;48.530;9.200;2023-03-16T15:59:30;4.97;;;4.40;;
417;SDS011;49;48.530;9.200;2023-03-16T16:02:12;8.70;;;4.67;;
417;SDS011;49;48.530;9.200;2023-03-16T16:04:55;7.73;;;4.87;;
417;SDS011;49;48.530;9.200;2023-03-16T16:07:30;10.50;;;4.83;;
417;SDS011;49;48.530;9.200;2023-03-16T16:10:00;5.90;;;4.50;;
417;SDS011;49;48.530;9.200;2023-03-16T16:12:33;4.97;;;4.53;;
417;SDS011;49;48.530;9.200;2023-03-16T16:15:02;10.27;;;5.57;;
417;SDS011;49;48.530;9.200;2023-03-16T16:17:45;9.00;;;4.90;;
417;SDS011;49;48.530;9.200;2023-03-16T16:20:16;8.10;;;4.80;;
417;SDS011;49;48.530;9.200;2023-03-16T16:22:52;8.57;;;5.30;;
417;SDS011;49;48.530;9.200;2023-03-16T16:25:24;9.93;;;4.70;;
417;SDS011;49;48.530;9.200;2023-03-16T16:28:07;7.27;;;4.80;;
417;SDS011;49;48.530;9.200;2023-03-16T16:30:43;8.00;;;4.93;;
417;SDS011;49;48.530;9.200;2023-03-16T16:33:19;6.00;;;4.63;;
417;SDS011;49;48.530;9.200;2023-03-16T16:35:51;5.93;;;4.30;;
417;SDS011;49;48.530;9.200;2023-03-16T16:38:20;9.93;;;4.63;;